Time;durP1;ratioP1;P1;durP2;ratioP2;P2;SDS_P1;SDS_P2;PMS_P1;PMS_P2;Temp;Humidity;BMP_temperature;BMP_pressure;BME280_temperature;BME280_humidity;BME280_pressure;Samples;Min_cycle;Max_cycle;Signal;HPM_P1;HPM_P2
2023/08/25 00:01:28;;;;;;;;;;;;;;;23.49;61.94;100565.91;5023954;28;4033;-68
2023/08/25 00:03:55;;;;;;;;;;;;;;;23.49;61.98;100546.41;5033582;28;4345;-68
2023/08/25 00:06:21;;;;;;;;;;;;;;;23.56;62.14;100553.09;5028153;28;4211;-68
2023/08/25 00:08:48;;;;;;;;;;;;;;;23.56;62.19;100538.66;5029204;28;4199;-64
2023/08/25 00:11:14;;;;;;;;;;;;;;;23.49;62.23;100531.22;5023322;28;4248;-64
2023/08/25 00:13:41;;;;;;;;;;;;;;;23.47;62.37;100528.28;5024304;28;4148;-67
2023/08/25 00:16:09;;;;;;;;;;;;;;;23.46;61.96;100523.94;5021699;28;4309;-68
2023/08/25 00:18:35;;;;;;;;;;;;;;;23.47;61.83;100528.28;5027699;28;4041;-68
2023/08/25 00:21:02;;;;;;;;;;;;;;;23.46;61.75;100530.44;5024486;28;4177;-68
2023/08/25 00:23:28;;;;;;;;;;;;;;;23.48;61.96;100529.75;5028806;28;4152;-67
2023/08/25 00:25:55;;;;;;;;;;;;;;;23.48;62.04;100530.50;5028844;28;4019;-68
2023/08/25 00:28:21;;;;;;;;;;;;;;;23.50;62.00;100524.03;5030648;28;4972;-68
2023/08/25 00:30:48;;;;;;;;;;;;;;;23.49;62.14;100525.44;5026153;28;4053;-68
2023/08/25 00:33:15;;;;;;;;;;;;;;;23.46;62.35;100518.16;5040168;28;4355;-67
2023/08/25 00:35:42;;;;;;;;;;;;;;;23.47;62.38;100526.13;5028992;28;4363;-68
2023/08/25 00:38:08;;;;;;;;;;;;;;;23.46;62.09;100523.94;5024003;28;4149;-68
2023/08/25 00:40:35;;;;;;;;;;;;;;;23.51;61.86;100513.94;5026689;28;4101;-68
2023/08/25 00:43:03;;;;;;;;;;;;;;;23.48;61.91;100507.38;5023102;28;3989;-67
2023/08/25 00:45:30;;;;;;;;;;;;;;;23.48;61.96;100510.28;5027058;28;4280;-67
2023/08/25 00:47:56;;;;;;;;;;;;;;;23.51;61.86;100499.50;5032393;28;4147;-68
2023/08/25 00:50:23;;;;;;;;;;;;;;;23.53;61.65;100496.66;5033394;28;4360;-68
2023/08/25 00:52:50;;;;;;;;;;;;;;;23.55;61.82;100496.72;5035060;28;3916;-69
2023/08/25 00:55:16;;;;;;;;;;;;;;;23.47;61.70;100482.78;5030021;28;3993;-68
2023/08/25 00:57:43;;;;;;;;;;;;;;;23.45;61.57;100497.16;5031394;28;4448;-68
2023/08/25 01:00:11;;;;;;;;;;;;;;;23.43;61.55;100500.00;5026004;28;4142;-68
2023/08/25 01:02:37;;;;;;;;;;;;;;;23.44;61.21;100483.41;5029762;28;4095;-68
2023/08/25 01:05:05;;;;;;;;;;;;;;;23.53;61.15;100456.22;5045919;28;4154;-68
2023/08/25 01:07:32;;;;;;;;;;;;;;;23.49;61.14;100450.31;5030202;28;4253;-69
2023/08/25 01:09:59;;;;;;;;;;;;;;;23.54;61.25;100449.00;5027893;28;4190;-68
2023/08/25 01:12:35;;;;;;;;;;;;;;;23.58;61.04;100441.19;5027715;28;4022;-68
2023/08/25 01:15:04;;;;;;;;;;;;;;;23.54;61.07;100440.34;5024950;28;4128;-67
2023/08/25 01:17:34;;;;;;;;;;;;;;;23.54;60.91;100435.28;5025263;28;4187;-69
2023/08/25 01:20:01;;;;;;;;;;;;;;;23.49;60.94;100439.47;5040961;28;4186;-67
2023/08/25 01:22:39;;;;;;;;;;;;;;;23.45;61.29;100438.66;5035699;28;4087;-68
2023/08/25 01:25:18;;;;;;;;;;;;;;;23.43;61.36;100445.09;5027961;28;4335;-68
2023/08/25 01:27:44;;;;;;;;;;;;;;;23.42;60.96;100452.31;5030583;28;4233;-68
2023/08/25 01:30:10;;;;;;;;;;;;;;;23.41;61.16;100445.78;5023705;28;4058;-68
2023/08/25 01:32:37;;;;;;;;;;;;;;;23.41;61.02;100451.56;5028323;28;4956;-68
2023/08/25 01:35:04;;;;;;;;;;;;;;;23.41;61.23;100442.19;5025563;28;4267;-68
2023/08/25 01:37:32;;;;;;;;;;;;;;;23.40;61.53;100443.56;5027050;28;4187;-68
2023/08/25 01:39:59;;;;;;;;;;;;;;;23.40;61.29;100447.19;5044096;28;4033;-68
2023/08/25 01:42:25;;;;;;;;;;;;;;;23.40;61.35;100441.41;5032051;28;4375;-69
2023/08/25 01:44:52;;;;;;;;;;;;;;;23.41;61.31;100442.19;5040932;28;4086;-69
2023/08/25 01:47:18;;;;;;;;;;;;;;;23.42;61.39;100435.69;5026532;28;4221;-67
2023/08/25 01:49:44;;;;;;;;;;;;;;;23.41;61.47;100440.00;5043392;28;4201;-68
2023/08/25 01:52:12;;;;;;;;;;;;;;;23.41;61.50;100440.00;5033706;28;4140;-69
2023/08/25 01:54:41;;;;;;;;;;;;;;;23.41;61.57;100440.00;5036821;28;4098;-68
2023/08/25 01:57:07;;;;;;;;;;;;;;;23.42;61.39;100429.91;5026307;28;4167;-68
2023/08/25 01:59:34;;;;;;;;;;;;;;;23.44;61.18;100437.19;5041891;28;4058;-68
2023/08/25 02:02:01;;;;;;;;;;;;;;;23.41;61.16;100434.25;5028381;28;4197;-67
2023/08/25 02:04:27;;;;;;;;;;;;;;;23.40;61.41;100429.84;5042643;28;4124;-68
2023/08/25 02:06:54;;;;;;;;;;;;;;;23.39;61.50;100437.06;5035556;28;4039;-68
2023/08/25 02:09:20;;;;;;;;;;;;;;;23.39;61.76;100421.88;5041547;28;4116;-69
2023/08/25 02:11:46;;;;;;;;;;;;;;;23.39;61.98;100419.72;5029008;28;4184;-68
2023/08/25 02:14:18;;;;;;;;;;;;;;;23.40;61.67;100411.78;5026938;28;4252;-68
2023/08/25 02:16:45;;;;;;;;;;;;;;;23.39;61.91;100408.16;5033452;28;3936;-69
2023/08/25 02:19:11;;;;;;;;;;;;;;;23.41;61.78;100410.38;5025418;28;4427;-68
2023/08/25 02:21:38;;;;;;;;;;;;;;;23.40;61.77;100424.09;5026337;28;4199;-69
2023/08/25 02:24:04;;;;;;;;;;;;;;;23.41;62.08;100419.78;5045624;28;4157;-67
2023/08/25 02:26:32;;;;;;;;;;;;;;;23.40;61.90;100420.47;5041194;28;4124;-68
2023/08/25 02:28:58;;;;;;;;;;;;;;;23.39;62.03;100419.72;5027654;28;4162;-68
2023/08/25 02:31:25;;;;;;;;;;;;;;;23.39;61.92;100416.84;5027007;28;4094;-68
2023/08/25 02:33:51;;;;;;;;;;;;;;;23.38;62.28;100405.97;5028650;28;4372;-68
2023/08/25 02:36:18;;;;;;;;;;;;;;;23.37;62.35;100399.44;5028113;28;4122;-67
2023/08/25 02:38:44;;;;;;;;;;;;;;;23.37;62.41;100402.34;5023813;28;4139;-68
2023/08/25 02:41:11;;;;;;;;;;;;;;;23.36;62.26;100397.97;5025428;28;4093;-68
2023/08/25 02:43:37;;;;;;;;;;;;;;;23.37;62.31;100390.78;5022310;28;4081;-68
2023/08/25 02:46:04;;;;;;;;;;;;;;;23.37;62.32;100390.06;5039213;28;4167;-68
2023/08/25 02:48:31;;;;;;;;;;;;;;;23.36;62.39;100385.69;5025412;28;4041;-68
2023/08/25 02:50:57;;;;;;;;;;;;;;;23.35;62.29;100382.06;5028414;28;4239;-68
2023/08/25 02:53:23;;;;;;;;;;;;;;;23.34;62.66;100374.81;5043438;28;4230;-68
2023/08/25 02:55:50;;;;;;;;;;;;;;;23.31;62.74;100373.28;5025129;28;4054;-68
2023/08/25 02:58:16;;;;;;;;;;;;;;;23.33;62.65;100376.22;5044295;28;4083;-68
2023/08/25 03:00:44;;;;;;;;;;;;;;;23.33;62.28;100373.34;5039200;28;4389;-69
2023/08/25 03:03:10;;;;;;;;;;;;;;;23.31;62.37;100379.06;5027152;28;4400;-68
2023/08/25 03:05:40;;;;;;;;;;;;;;;23.30;62.54;100383.38;5025030;28;4031;-69
2023/08/25 03:08:11;;;;;;;;;;;;;;;23.29;62.58;100376.09;5026022;28;5404;-68
2023/08/25 03:10:38;;;;;;;;;;;;;;;23.29;62.80;100364.56;5039054;28;3946;-68
2023/08/25 03:13:04;;;;;;;;;;;;;;;23.27;62.79;100369.53;5039813;28;4260;-68
2023/08/25 03:15:31;;;;;;;;;;;;;;;23.27;62.73;100373.16;5020925;28;4125;-69
2023/08/25 03:17:57;;;;;;;;;;;;;;;23.27;62.76;100375.31;5025812;28;4149;-68
2023/08/25 03:20:24;;;;;;;;;;;;;;;23.26;62.68;100383.25;5027144;28;4149;-69
2023/08/25 03:22:52;;;;;;;;;;;;;;;23.26;62.74;100388.31;5038988;28;4034;-69
2023/08/25 03:25:18;;;;;;;;;;;;;;;23.24;62.82;100380.31;5024196;28;4006;-68
2023/08/25 03:27:45;;;;;;;;;;;;;;;23.22;62.69;100383.16;5040083;28;4449;-69
2023/08/25 03:30:11;;;;;;;;;;;;;;;23.22;62.75;100377.38;5027320;28;4128;-69
2023/08/25 03:32:38;;;;;;;;;;;;;;;23.23;62.66;100378.84;5024749;28;4040;-68
2023/08/25 03:35:04;;;;;;;;;;;;;;;23.22;62.91;100377.38;5041673;28;4068;-69
2023/08/25 03:37:31;;;;;;;;;;;;;;;23.21;63.27;100378.78;5044802;28;4270;-68
2023/08/25 03:40:02;;;;;;;;;;;;;;;23.18;63.11;100377.25;5040457;28;5106;-67
2023/08/25 03:42:28;;;;;;;;;;;;;;;23.17;63.25;100376.53;5025698;28;4121;-68
2023/08/25 03:44:55;;;;;;;;;;;;;;;23.16;63.64;100386.63;5023451;28;4297;-68
2023/08/25 03:47:22;;;;;;;;;;;;;;;23.16;63.53;100383.00;5026733;28;4253;-68
2023/08/25 03:49:50;;;;;;;;;;;;;;;23.15;63.71;100390.91;5041726;28;4175;-68
2023/08/25 03:52:16;;;;;;;;;;;;;;;23.14;64.03;100389.44;5025270;28;4154;-67
2023/08/25 03:54:42;;;;;;;;;;;;;;;23.15;63.76;100384.41;5007918;28;4038;-68
2023/08/25 03:57:10;;;;;;;;;;;;;;;23.15;63.78;100393.06;5039889;28;4168;-68
2023/08/25 03:59:36;;;;;;;;;;;;;;;23.14;63.68;100388.72;5022658;28;4602;-68
2023/08/25 04:02:03;;;;;;;;;;;;;;;23.14;63.67;100385.81;5024985;28;4155;-68
2023/08/25 04:04:31;;;;;;;;;;;;;;;23.12;63.65;100382.88;5043172;28;3957;-68
2023/08/25 04:06:58;;;;;;;;;;;;;;;23.13;63.82;100387.97;5044363;28;4161;-68
2023/08/25 04:09:26;;;;;;;;;;;;;;;23.13;63.99;100390.13;5025045;28;4272;-68
2023/08/25 04:11:56;;;;;;;;;;;;;;;23.13;64.04;100387.22;5022555;28;4115;-68
2023/08/25 04:14:23;;;;;;;;;;;;;;;23.12;63.77;100385.78;5040288;28;4048;-68
2023/08/25 04:16:49;;;;;;;;;;;;;;;23.12;63.92;100394.44;5025160;28;3966;-68
2023/08/25 04:19:16;;;;;;;;;;;;;;;23.12;63.71;100388.66;5025736;28;4070;-68
2023/08/25 04:21:43;;;;;;;;;;;;;;;23.12;63.83;100380.72;5039498;28;3940;-68
2023/08/25 04:24:11;;;;;;;;;;;;;;;23.12;64.01;100385.78;5023291;28;4138;-68
2023/08/25 04:26:38;;;;;;;;;;;;;;;23.10;64.09;100377.78;5026444;28;4248;-68
2023/08/25 04:29:06;;;;;;;;;;;;;;;23.10;64.08;100374.88;5043306;28;4351;-68
2023/08/25 04:31:32;;;;;;;;;;;;;;;23.09;64.07;100376.31;5040039;28;4329;-68
2023/08/25 04:33:59;;;;;;;;;;;;;;;23.10;63.85;100368.38;5024034;28;4063;-68
2023/08/25 04:36:28;;;;;;;;;;;;;;;23.10;63.74;100366.22;5026161;28;4189;-68
2023/08/25 04:38:54;;;;;;;;;;;;;;;23.11;63.76;100379.25;5027076;28;4012;-68
2023/08/25 04:41:21;;;;;;;;;;;;;;;23.12;63.91;100377.09;5039213;28;4086;-68
2023/08/25 04:43:47;;;;;;;;;;;;;;;23.09;64.07;100364.75;5025828;28;4225;-68
2023/08/25 04:46:14;;;;;;;;;;;;;;;23.12;64.04;100365.56;5026787;28;4054;-68
2023/08/25 04:48:45;;;;;;;;;;;;;;;23.12;64.02;100368.44;5025871;28;4129;-68
2023/08/25 04:51:12;;;;;;;;;;;;;;;23.10;64.10;100365.50;5025217;28;4050;-68
2023/08/25 04:53:39;;;;;;;;;;;;;;;23.11;64.07;100361.19;5023734;28;4155;-68
2023/08/25 04:56:06;;;;;;;;;;;;;;;23.12;64.20;100356.88;5022615;28;4245;-68
2023/08/25 04:58:33;;;;;;;;;;;;;;;23.11;64.31;100361.19;5041218;28;4048;-68
2023/08/25 05:00:59;;;;;;;;;;;;;;;23.11;64.46;100366.97;5027241;28;4812;-67
2023/08/25 05:03:26;;;;;;;;;;;;;;;23.10;64.22;100371.28;5026562;28;4132;-68
2023/08/25 05:05:52;;;;;;;;;;;;;;;23.10;64.32;100365.50;5022105;28;4378;-68
2023/08/25 05:08:20;;;;;;;;;;;;;;;23.10;64.23;100360.44;5037565;28;4011;-68
2023/08/25 05:10:46;;;;;;;;;;;;;;;23.11;64.42;100361.19;5026522;28;4099;-68
2023/08/25 05:13:13;;;;;;;;;;;;;;;23.10;64.17;100360.44;5023781;28;4113;-68
2023/08/25 05:15:40;;;;;;;;;;;;;;;23.08;64.33;100356.78;5026667;28;4114;-69
2023/08/25 05:18:07;;;;;;;;;;;;;;;23.07;64.54;100361.09;5018520;28;4227;-65
2023/08/25 05:20:34;;;;;;;;;;;;;;;22.92;64.83;100357.75;5025214;28;4263;-69
2023/08/25 05:23:00;;;;;;;;;;;;;;;22.92;64.82;100362.81;5025684;28;4230;-72
2023/08/25 05:25:28;;;;;;;;;;;;;;;22.96;64.51;100357.16;5022956;28;4245;-72
2023/08/25 05:27:54;;;;;;;;;;;;;;;23.17;66.34;100358.47;5020291;28;4053;-74
2023/08/25 05:30:21;;;;;;;;;;;;;;;23.07;64.46;100356.03;5020772;28;4112;-75
2023/08/25 05:32:50;;;;;;;;;;;;;;;23.12;65.04;100354.00;5021760;28;4085;-69
2023/08/25 05:35:24;;;;;;;;;;;;;;;23.15;64.91;100350.47;5024280;28;5602;-70
2023/08/25 05:37:50;;;;;;;;;;;;;;;23.22;64.50;100354.25;5026363;28;4020;-71
2023/08/25 05:40:17;;;;;;;;;;;;;;;23.26;64.24;100347.88;5044798;28;4127;-71
2023/08/25 05:42:46;;;;;;;;;;;;;;;23.24;64.26;100348.53;5042710;28;4258;-70
2023/08/25 05:45:12;;;;;;;;;;;;;;;23.24;64.24;100348.53;5028960;28;4309;-70
2023/08/25 05:47:38;;;;;;;;;;;;;;;23.24;64.07;100345.66;5036126;28;4259;-70
2023/08/25 05:50:05;;;;;;;;;;;;;;;23.25;63.91;100352.91;5044779;28;3995;-70
2023/08/25 05:52:32;;;;;;;;;;;;;;;23.27;63.91;100344.28;5031152;28;4158;-70
2023/08/25 05:54:58;;;;;;;;;;;;;;;23.27;63.96;100347.16;5029944;28;4182;-70
2023/08/25 05:57:24;;;;;;;;;;;;;;;23.29;63.94;100353.00;5044499;28;4228;-71
2023/08/25 05:59:51;;;;;;;;;;;;;;;23.31;63.74;100350.16;5030881;28;4230;-70
2023/08/25 06:02:17;;;;;;;;;;;;;;;23.24;64.10;100348.53;5027889;28;4120;-73
2023/08/25 06:04:44;;;;;;;;;;;;;;;23.15;63.83;100338.19;5039372;28;4216;-74
2023/08/25 06:07:10;;;;;;;;;;;;;;;23.07;63.92;100335.09;5032818;28;4150;-76
2023/08/25 06:09:37;;;;;;;;;;;;;;;23.23;65.56;100337.66;5027997;28;4216;-73
2023/08/25 06:12:03;;;;;;;;;;;;;;;23.58;63.58;100336.41;5028828;28;4263;-74
2023/08/25 06:14:30;;;;;;;;;;;;;;;23.73;63.11;100341.13;5029359;28;4257;-81
2023/08/25 06:17:00;;;;;;;;;;;;;;;23.79;62.35;100341.28;5032832;28;4190;-74
2023/08/25 06:19:27;;;;;;;;;;;;;;;23.97;61.08;100348.91;5033623;28;4209;-75
2023/08/25 06:21:53;;;;;;;;;;;;;;;23.89;61.20;100340.03;5030654;28;5339;-74
2023/08/25 06:24:19;;;;;;;;;;;;;;;23.94;61.14;100338.75;5034365;28;4087;-73
2023/08/25 06:26:47;;;;;;;;;;;;;;;23.92;61.71;100332.91;5032405;28;3980;-74
2023/08/25 06:29:14;;;;;;;;;;;;;;;23.91;61.04;100348.78;5032454;28;4119;-73
2023/08/25 06:31:40;;;;;;;;;;;;;;;23.86;62.34;100350.09;5032365;28;4014;-73
2023/08/25 06:34:07;;;;;;;;;;;;;;;23.86;61.96;100347.22;5033221;28;4173;-72
2023/08/25 06:36:33;;;;;;;;;;;;;;;23.97;61.10;100351.81;5031988;28;4911;-75
2023/08/25 06:39:00;;;;;;;;;;;;;;;23.72;62.19;100345.41;5029131;28;4081;-71
2023/08/25 06:41:26;;;;;;;;;;;;;;;23.92;61.92;100348.09;5032770;28;4159;-73
2023/08/25 06:43:57;;;;;;;;;;;;;;;24.20;61.19;100345.09;5029576;28;4161;-74
2023/08/25 06:46:23;;;;;;;;;;;;;;;24.08;62.37;100344.84;5033416;28;4224;-72
2023/08/25 06:48:50;;;;;;;;;;;;;;;24.04;61.81;100344.75;5033386;28;4139;-72
2023/08/25 06:51:16;;;;;;;;;;;;;;;23.95;61.50;100355.38;5028141;28;4094;-69
2023/08/25 06:53:43;;;;;;;;;;;;;;;23.93;61.72;100351.72;5036917;28;4031;-69
2023/08/25 06:56:10;;;;;;;;;;;;;;;23.96;62.63;100367.69;5028101;28;4141;-67
2023/08/25 06:58:36;;;;;;;;;;;;;;;23.98;62.03;100359.06;5033727;28;4179;-72
2023/08/25 07:01:03;;;;;;;;;;;;;;;24.02;61.41;100359.16;5033964;28;4105;-71
2023/08/25 07:03:29;;;;;;;;;;;;;;;24.08;60.95;100362.19;5031294;28;4108;-72
2023/08/25 07:05:58;;;;;;;;;;;;;;;23.88;61.27;100362.44;5036008;28;4161;-71
2023/08/25 07:08:27;;;;;;;;;;;;;;;23.85;61.94;100360.22;5033982;28;5277;-75
2023/08/25 07:10:53;;;;;;;;;;;;;;;24.12;61.53;100356.50;5034469;28;4098;-73
2023/08/25 07:13:20;;;;;;;;;;;;;;;24.13;60.82;100363.75;5034683;28;4020;-74
2023/08/25 07:15:46;;;;;;;;;;;;;;;24.12;61.24;100370.97;5033640;28;3946;-75
2023/08/25 07:18:13;;;;;;;;;;;;;;;23.96;61.33;100370.56;5032875;28;4060;-74
2023/08/25 07:20:39;;;;;;;;;;;;;;;23.95;62.25;100372.00;5030171;28;4031;-76
2023/08/25 07:23:06;;;;;;;;;;;;;;;23.93;62.71;100364.00;5028163;28;4159;-76
2023/08/25 07:25:32;;;;;;;;;;;;;;;23.88;62.72;100359.56;5044085;28;4820;-75
2023/08/25 07:27:58;;;;;;;;;;;;;;;23.98;62.72;100359.06;5047585;28;4160;-76
2023/08/25 07:30:25;;;;;;;;;;;;;;;24.23;61.81;100349.53;5032515;28;4130;-75
2023/08/25 07:32:51;;;;;;;;;;;;;;;24.63;60.80;100351.84;5030985;28;3964;-72
2023/08/25 07:35:18;;;;;;;;;;;;;;;24.59;61.63;100354.66;5035476;28;4014;-70
2023/08/25 07:37:44;;;;;;;;;;;;;;;24.51;61.25;100359.53;5025694;28;4184;-71
2023/08/25 07:40:10;;;;;;;;;;;;;;;24.73;60.56;100368.69;5030394;28;3992;-75
2023/08/25 07:42:37;;;;;;;;;;;;;;;24.43;61.53;100374.53;5029810;28;4110;-75
2023/08/25 07:45:04;;;;;;;;;;;;;;;24.61;60.80;100369.16;5030225;28;4122;-73
2023/08/25 07:47:30;;;;;;;;;;;;;;;24.57;60.92;100371.25;5030528;28;4390;-76
2023/08/25 07:49:57;;;;;;;;;;;;;;;24.46;61.44;100371.00;5031971;28;4131;-79
2023/08/25 07:52:23;;;;;;;;;;;;;;;24.56;61.64;100372.69;5048775;28;3945;-81
2023/08/25 07:54:49;;;;;;;;;;;;;;;24.53;61.08;100359.56;5034079;28;4068;-79
2023/08/25 07:57:16;;;;;;;;;;;;;;;24.29;61.85;100371.34;5028623;28;4070;-80
2023/08/25 07:59:42;;;;;;;;;;;;;;;24.55;61.44;100366.13;5046493;28;4117;-73
2023/08/25 08:02:10;;;;;;;;;;;;;;;24.52;60.70;100370.44;5026276;28;4173;-71
2023/08/25 08:04:38;;;;;;;;;;;;;;;24.66;60.72;100364.94;5030126;28;4128;-71
2023/08/25 08:07:04;;;;;;;;;;;;;;;24.60;60.77;100369.84;5025127;28;4394;-72
2023/08/25 08:09:31;;;;;;;;;;;;;;;24.69;60.88;100382.34;5031223;28;4079;-73
2023/08/25 08:11:58;;;;;;;;;;;;;;;24.66;60.61;100381.56;5031120;28;4190;-71
2023/08/25 08:14:24;;;;;;;;;;;;;;;24.84;60.45;100379.06;5021991;28;4101;-71
2023/08/25 08:17:09;;;;;;;;;;;;;;;24.79;60.37;100368.09;5027165;28;4160;-71
2023/08/25 08:19:35;;;;;;;;;;;;;;;24.80;60.46;100369.53;5022294;28;4211;-71
2023/08/25 08:22:03;;;;;;;;;;;;;;;24.85;60.37;100368.19;5016226;28;4152;-71
2023/08/25 08:24:30;;;;;;;;;;;;;;;24.85;60.34;100380.53;5021130;28;4213;-75
2023/08/25 08:27:18;;;;;;;;;;;;;;;24.65;60.99;100380.13;5019064;28;4033;-72
2023/08/25 08:29:47;;;;;;;;;;;;;;;24.57;60.86;100382.81;5022324;28;4189;-78
2023/08/25 08:32:14;;;;;;;;;;;;;;;24.76;60.51;100378.16;5033670;28;4870;-73
2023/08/25 08:34:40;;;;;;;;;;;;;;;24.81;59.97;100371.75;5032834;28;3933;-75
2023/08/25 08:37:07;;;;;;;;;;;;;;;24.51;61.09;100377.66;5030044;28;4099;-72
2023/08/25 08:39:33;;;;;;;;;;;;;;;24.57;61.18;100386.44;5031050;28;4088;-77
2023/08/25 08:42:01;;;;;;;;;;;;;;;24.47;61.20;100386.25;5024547;28;4224;-69
2023/08/25 08:44:28;;;;;;;;;;;;;;;24.41;61.28;100397.66;5026883;28;4233;-69
2023/08/25 08:46:54;;;;;;;;;;;;;;;24.31;61.92;100403.22;5026710;28;4543;-69
2023/08/25 08:49:23;;;;;;;;;;;;;;;24.27;61.78;100394.44;5043076;28;4100;-70
2023/08/25 08:51:49;;;;;;;;;;;;;;;24.20;61.85;100396.44;5038347;28;4086;-71
2023/08/25 08:54:19;;;;;;;;;;;;;;;24.51;61.25;100395.03;5029848;28;4029;-71
2023/08/25 08:56:46;;;;;;;;;;;;;;;24.69;60.85;100388.88;5024747;28;4116;-72
2023/08/25 08:59:12;;;;;;;;;;;;;;;24.71;60.56;100396.88;5020475;28;4191;-74
2023/08/25 09:01:39;;;;;;;;;;;;;;;24.76;60.51;100401.31;5026433;28;4511;-70
2023/08/25 09:04:06;;;;;;;;;;;;;;;24.78;60.44;100415.84;5043574;28;4875;-69
2023/08/25 09:06:35;;;;;;;;;;;;;;;24.75;60.23;100411.44;5034514;28;4424;-70
2023/08/25 09:09:04;;;;;;;;;;;;;;;24.54;61.04;100413.16;5025671;28;4016;-73
2023/08/25 09:11:31;;;;;;;;;;;;;;;24.52;61.23;100410.94;5027291;28;4157;-73
2023/08/25 09:14:03;;;;;;;;;;;;;;;24.71;60.75;100414.25;5030391;28;4318;-72
2023/08/25 09:16:34;;;;;;;;;;;;;;;24.75;60.52;100417.22;5031506;28;4252;-73
2023/08/25 09:19:02;;;;;;;;;;;;;;;24.82;60.32;100421.72;5028069;28;4005;-72
2023/08/25 09:21:28;;;;;;;;;;;;;;;24.87;60.19;100415.31;5032212;28;3937;-75
2023/08/25 09:23:56;;;;;;;;;;;;;;;24.85;60.24;100409.50;5032416;28;4156;-68
2023/08/25 09:26:22;;;;;;;;;;;;;;;24.88;60.13;100405.19;5033356;28;4190;-69
2023/08/25 09:28:51;;;;;;;;;;;;;;;24.92;60.36;100409.59;5030942;28;4024;-73
2023/08/25 09:31:20;;;;;;;;;;;;;;;25.04;60.12;100412.75;5030563;28;4390;-71
2023/08/25 09:33:47;;;;;;;;;;;;;;;25.13;59.97;100419.44;5028414;28;3983;-72
2023/08/25 09:36:13;;;;;;;;;;;;;;;25.09;59.83;100423.00;5046002;28;4309;-72
2023/08/25 09:38:42;;;;;;;;;;;;;;;25.14;59.73;100420.91;5030014;28;4365;-72
2023/08/25 09:41:26;;;;;;;;;;;;;;;25.05;59.78;100420.75;5027030;28;4406;-70
2023/08/25 09:43:59;;;;;;;;;;;;;;;25.01;59.79;100417.03;5027513;28;4154;-69
2023/08/25 09:46:26;;;;;;;;;;;;;;;24.97;59.93;100426.38;5027445;28;4488;-70
2023/08/25 09:48:53;;;;;;;;;;;;;;;24.92;60.16;100424.81;5031357;28;4200;-69
2023/08/25 09:51:20;;;;;;;;;;;;;;;24.88;60.30;100427.63;5028877;28;4169;-69
2023/08/25 09:53:46;;;;;;;;;;;;;;;24.85;60.44;100437.69;5033264;28;3995;-73
2023/08/25 09:56:14;;;;;;;;;;;;;;;24.81;60.72;100449.22;5046900;28;4179;-72
2023/08/25 09:58:44;;;;;;;;;;;;;;;24.79;60.49;100446.28;5027775;28;4078;-71
2023/08/25 10:01:11;;;;;;;;;;;;;;;25.05;60.46;100443.19;5028392;28;3959;-78
2023/08/25 10:03:37;;;;;;;;;;;;;;;25.13;59.98;100442.59;5029074;28;4109;-72
2023/08/25 10:06:03;;;;;;;;;;;;;;;25.15;60.15;100437.59;5044310;28;4103;-68
2023/08/25 10:08:30;;;;;;;;;;;;;;;25.15;60.06;100433.94;5029323;28;4417;-68
2023/08/25 10:10:56;;;;;;;;;;;;;;;25.16;59.87;100435.44;5032037;28;4206;-68
2023/08/25 10:13:22;;;;;;;;;;;;;;;25.02;60.13;100444.56;5041216;28;4186;-69
2023/08/25 10:15:49;;;;;;;;;;;;;;;24.75;60.83;100441.13;5030766;28;4167;-69
2023/08/25 10:18:15;;;;;;;;;;;;;;;24.71;60.86;100434.50;5027251;28;4414;-71
2023/08/25 10:20:42;;;;;;;;;;;;;;;24.71;61.11;100434.50;5032609;28;4349;-69
2023/08/25 10:23:08;;;;;;;;;;;;;;;24.74;60.95;100438.91;5046445;28;3899;-72
2023/08/25 10:25:35;;;;;;;;;;;;;;;24.78;61.35;100441.88;5045599;28;5000;-77
2023/08/25 10:28:02;;;;;;;;;;;;;;;24.99;60.78;100445.94;5032407;28;4028;-73
2023/08/25 10:30:29;;;;;;;;;;;;;;;24.94;60.79;100445.13;5013041;28;4102;-77
2023/08/25 10:33:04;;;;;;;;;;;;;;;24.85;60.50;100443.50;5031992;28;3936;-77
2023/08/25 10:35:40;;;;;;;;;;;;;;;24.87;60.51;100455.84;5028155;28;4096;-77
2023/08/25 10:38:22;;;;;;;;;;;;;;;24.87;61.00;100446.44;5031672;28;4188;-78
2023/08/25 10:40:48;;;;;;;;;;;;;;;24.85;61.11;100461.63;5032845;28;4281;-79
2023/08/25 10:43:15;;;;;;;;;;;;;;;24.77;61.13;100452.75;5034742;28;3934;-78
2023/08/25 10:45:41;;;;;;;;;;;;;;;24.82;61.20;100447.78;5048002;28;4016;-78
2023/08/25 10:48:09;;;;;;;;;;;;;;;24.79;61.18;100449.16;5032652;28;3913;-78
2023/08/25 10:50:42;;;;;;;;;;;;;;;24.81;61.17;100460.81;5033082;28;4276;-78
2023/08/25 10:53:28;;;;;;;;;;;;;;;24.75;61.45;100457.75;5032955;28;4148;-78
2023/08/25 10:55:54;;;;;;;;;;;;;;;24.79;61.29;100457.84;5034459;28;4112;-78
2023/08/25 10:58:20;;;;;;;;;;;;;;;24.83;60.82;100458.69;5031125;28;4172;-78
2023/08/25 11:00:48;;;;;;;;;;;;;;;24.89;60.65;100458.06;5033547;28;4228;-78
2023/08/25 11:03:15;;;;;;;;;;;;;;;24.89;60.17;100455.16;5029581;28;4139;-77
2023/08/25 11:05:42;;;;;;;;;;;;;;;24.80;60.67;100454.25;5027392;28;4189;-81
2023/08/25 11:08:24;;;;;;;;;;;;;;;24.95;60.34;100452.41;5027203;28;4189;-73
2023/08/25 11:11:13;;;;;;;;;;;;;;;24.97;60.14;100449.56;5039211;28;4091;-73
2023/08/25 11:13:39;;;;;;;;;;;;;;;25.00;60.15;100462.63;5026165;28;5296;-75
2023/08/25 11:16:09;;;;;;;;;;;;;;;25.39;59.44;100451.13;5024926;28;4166;-77
2023/08/25 11:18:38;;;;;;;;;;;;;;;25.42;59.13;100446.81;5026377;28;4158;-74
2023/08/25 11:21:04;;;;;;;;;;;;;;;25.41;59.29;100437.41;5029985;28;4120;-73
2023/08/25 11:23:37;;;;;;;;;;;;;;;25.46;59.43;100438.94;5025588;28;4417;-71
2023/08/25 11:26:03;;;;;;;;;;;;;;;25.41;59.68;100446.09;5022810;28;4245;-71
2023/08/25 11:28:30;;;;;;;;;;;;;;;25.48;59.39;100441.88;5025150;28;4135;-69
2023/08/25 11:30:56;;;;;;;;;;;;;;;25.42;58.93;100433.06;5024867;28;4070;-71
2023/08/25 11:33:24;;;;;;;;;;;;;;;25.31;59.19;100436.47;5025630;28;4128;-75
2023/08/25 11:35:50;;;;;;;;;;;;;;;25.40;59.25;100427.22;5029399;28;4088;-75
2023/08/25 11:38:17;;;;;;;;;;;;;;;25.47;58.90;100417.22;5024408;28;4170;-69
2023/08/25 11:40:43;;;;;;;;;;;;;;;25.56;58.76;100411.56;5025904;28;4068;-70
2023/08/25 11:43:10;;;;;;;;;;;;;;;26.06;56.79;100413.88;5024205;28;4281;-73
2023/08/25 11:45:37;;;;;;;;;;;;;;;25.84;57.91;100411.34;5030540;28;4024;-69
2023/08/25 11:48:04;;;;;;;;;;;;;;;25.73;58.14;100412.59;5026909;28;4321;-74
2023/08/25 11:50:30;;;;;;;;;;;;;;;25.46;58.72;100415.03;5029846;28;4179;-72
2023/08/25 11:52:57;;;;;;;;;;;;;;;25.51;58.88;100416.56;5028328;28;4128;-68
2023/08/25 11:55:32;;;;;;;;;;;;;;;25.40;58.89;100418.53;5037230;28;4122;-71
2023/08/25 11:57:58;;;;;;;;;;;;;;;25.69;58.76;100419.06;5026877;28;4426;-73
2023/08/25 12:00:25;;;;;;;;;;;;;;;25.72;58.48;100426.34;5024955;28;4254;-73
2023/08/25 12:02:57;;;;;;;;;;;;;;;25.77;58.52;100427.16;5028637;28;4036;-75
2023/08/25 12:05:26;;;;;;;;;;;;;;;26.26;56.95;100428.69;5026888;28;4020;-78
2023/08/25 12:07:58;;;;;;;;;;;;;;;25.82;58.45;100449.72;5027876;28;4151;-76
2023/08/25 12:10:24;;;;;;;;;;;;;;;25.85;57.95;100442.53;5025517;28;4045;-69
2023/08/25 12:12:52;;;;;;;;;;;;;;;25.60;58.74;100440.63;5023479;28;4280;-70
2023/08/25 12:15:18;;;;;;;;;;;;;;;25.70;58.39;100437.91;5028580;28;4130;-68
2023/08/25 12:17:47;;;;;;;;;;;;;;;25.64;58.71;100440.72;5029670;28;4195;-74
2023/08/25 12:20:16;;;;;;;;;;;;;;;25.60;58.79;100423.97;5029018;28;3961;-69
2023/08/25 12:23:00;;;;;;;;;;;;;;;25.63;58.38;100422.59;5025479;28;4577;-68
2023/08/25 12:25:27;;;;;;;;;;;;;;;25.67;58.71;100427.72;5028960;28;4368;-67
2023/08/25 12:27:53;;;;;;;;;;;;;;;25.60;58.61;100426.88;5030328;28;4067;-68
2023/08/25 12:30:21;;;;;;;;;;;;;;;25.61;58.82;100424.69;5029744;28;4081;-68
2023/08/25 12:32:47;;;;;;;;;;;;;;;25.81;58.56;100433.75;5026618;28;4167;-70
2023/08/25 12:35:13;;;;;;;;;;;;;;;25.53;59.16;100441.97;5029481;28;4151;-66
2023/08/25 12:37:40;;;;;;;;;;;;;;;25.58;59.09;100440.59;5027294;28;4144;-67
2023/08/25 12:40:07;;;;;;;;;;;;;;;25.61;58.98;100447.88;5026772;28;4447;-68
2023/08/25 12:42:33;;;;;;;;;;;;;;;25.68;59.13;100444.41;5032989;28;4090;-68
2023/08/25 12:44:59;;;;;;;;;;;;;;;26.04;58.14;100428.34;5031073;28;3982;-68
2023/08/25 12:47:26;;;;;;;;;;;;;;;25.88;58.44;100435.38;5031252;28;4130;-68
2023/08/25 12:49:52;;;;;;;;;;;;;;;25.77;58.19;100439.50;5033248;28;4805;-66